createdAt,value
2023-05-06T21:36:58.013Z,16.60
2023-05-06T21:39:25.150Z,16.60
2023-05-06T21:41:57.428Z,16.50
2023-05-06T21:47:13.834Z,16.50
2023-05-06T21:49:46.541Z,16.50
2023-05-06T21:52:13.732Z,16.50
2023-05-06T21:54:40.835Z,16.40
2023-05-06T21:57:09.119Z,16.40
2023-05-06T21:59:36.312Z,16.50
2023-05-06T22:02:04.328Z,16.30
2023-05-06T22:04:31.450Z,16.30
2023-05-06T22:06:58.627Z,16.30
2023-05-06T22:09:25.699Z,16.30
2023-05-06T22:11:52.734Z,16.30
2023-05-06T22:14:21.967Z,16.10
2023-05-06T22:16:52.750Z,15.90
2023-05-06T22:19:20.336Z,15.90
2023-05-06T22:21:47.475Z,15.90
2023-05-06T22:24:14.492Z,15.90
2023-05-06T22:26:41.689Z,15.90
2023-05-06T22:29:08.700Z,15.90
2023-05-06T22:31:35.733Z,16.00
2023-05-06T22:34:04.704Z,16.20
2023-05-06T22:36:33.648Z,16.20
2023-05-06T22:39:01.814Z,16.10
2023-05-06T22:41:30.471Z,15.90
2023-05-06T22:43:59.132Z,15.90
2023-05-06T22:46:26.874Z,16.00
2023-05-06T22:48:53.969Z,16.00
2023-05-06T22:51:21.252Z,15.80
2023-05-06T22:53:48.369Z,15.70
2023-05-06T22:56:15.403Z,15.40
2023-05-06T22:58:42.550Z,15.40
2023-05-06T23:01:09.770Z,15.50
2023-05-06T23:03:36.899Z,15.40
2023-05-06T23:06:06.219Z,15.40
2023-05-06T23:08:33.344Z,15.30
2023-05-06T23:11:00.794Z,15.40
2023-05-06T23:13:28.098Z,15.40
2023-05-06T23:15:55.249Z,15.40
2023-05-06T23:18:22.257Z,15.30
2023-05-06T23:20:49.407Z,15.30
2023-05-06T23:23:16.441Z,15.30
2023-05-06T23:25:43.520Z,15.30
2023-05-06T23:28:10.656Z,15.40
2023-05-06T23:30:37.717Z,15.30
2023-05-06T23:33:04.860Z,15.50
2023-05-06T23:35:32.459Z,15.40
2023-05-06T23:37:59.467Z,15.50
2023-05-06T23:40:26.556Z,15.50
2023-05-06T23:42:53.561Z,15.40
2023-05-06T23:45:20.688Z,15.60
2023-05-06T23:47:47.740Z,15.50
2023-05-06T23:50:15.014Z,15.40
2023-05-06T23:52:42.190Z,15.50
2023-05-06T23:55:09.810Z,15.50
2023-05-06T23:57:37.037Z,15.30
